sensor_id;sensor_type;location;lat;lon;timestamp;pressure;altitude;pressure_sealevel;temperature;humidity
78170;BME280;67412;49.892;14.490;2023-04-08T00:00:12;97275.13;;;2.60;88.72
78170;BME280;67412;49.892;14.490;2023-04-08T00:02:38;97272.63;;;2.62;88.30
78170;BME280;67412;49.892;14.490;2023-04-08T00:05:03;97274.25;;;2.60;88.46
78170;BME280;67412;49.892;14.490;2023-04-08T00:07:29;97275.78;;;2.49;89.22
78170;BME280;67412;49.892;14.490;2023-04-08T00:09:54;97267.44;;;2.56;89.24
78170;BME280;67412;49.892;14.490;2023-04-08T00:12:20;97279.19;;;2.51;88.84
78170;BME280;67412;49.892;14.490;2023-04-08T00:14:46;97279.91;;;2.42;89.83
78170;BME280;67412;49.892;14.490;2023-04-08T00:17:11;97280.84;;;2.49;89.05
78170;BME280;67412;49.892;14.490;2023-04-08T00:19:36;97276.53;;;2.44;89.43
78170;BME280;67412;49.892;14.490;2023-04-08T00:22:02;97271.47;;;2.43;89.46
78170;BME280;67412;49.892;14.490;2023-04-08T00:24:28;97277.31;;;2.40;90.07
78170;BME280;67412;49.892;14.490;2023-04-08T00:26:53;97272.28;;;2.42;89.92
78170;BME280;67412;49.892;14.490;2023-04-08T00:29:18;97276.63;;;2.49;89.72
78170;BME280;67412;49.892;14.490;2023-04-08T00:31:44;97276.59;;;2.46;89.63
78170;BME280;67412;49.892;14.490;2023-04-08T00:34:09;97282.47;;;2.45;89.90
78170;BME280;67412;49.892;14.490;2023-04-08T00:36:35;97284.19;;;2.46;90.17
78170;BME280;67412;49.892;14.490;2023-04-08T00:39:01;97279.13;;;2.48;89.42
78170;BME280;67412;49.892;14.490;2023-04-08T00:41:28;97275.69;;;2.42;89.93
78170;BME280;67412;49.892;14.490;2023-04-08T00:43:53;97279.13;;;2.46;90.12
78170;BME280;67412;49.892;14.490;2023-04-08T00:46:20;97277.41;;;2.43;89.60
78170;BME280;67412;49.892;14.490;2023-04-08T00:48:46;97269.03;;;2.49;90.31
78170;BME280;67412;49.892;14.490;2023-04-08T00:51:11;97271.56;;;2.49;90.51
78170;BME280;67412;49.892;14.490;2023-04-08T00:53:37;97279.94;;;2.45;90.12
78170;BME280;67412;49.892;14.490;2023-04-08T00:56:02;97279.06;;;2.43;90.73
78170;BME280;67412;49.892;14.490;2023-04-08T00:58:28;97285.03;;;2.47;90.87
78170;BME280;67412;49.892;14.490;2023-04-08T01:01:01;97279.16;;;2.49;90.76
78170;BME280;67412;49.892;14.490;2023-04-08T01:06:31;97279.06;;;2.44;90.83
78170;BME280;67412;49.892;14.490;2023-04-08T01:08:59;97273.06;;;2.38;90.64
78170;BME280;67412;49.892;14.490;2023-04-08T01:11:30;97280.63;;;2.36;90.18
78170;BME280;67412;49.892;14.490;2023-04-08T01:13:57;97275.50;;;2.33;90.74
78170;BME280;67412;49.892;14.490;2023-04-08T01:16:24;97272.25;;;2.40;91.07
78170;BME280;67412;49.892;14.490;2023-04-08T01:18:51;97267.31;;;2.48;90.38
78170;BME280;67412;49.892;14.490;2023-04-08T01:21:17;97265.59;;;2.46;90.27
78170;BME280;67412;49.892;14.490;2023-04-08T01:26:28;97263.00;;;2.44;90.47
78170;BME280;67412;49.892;14.490;2023-04-08T01:28:57;97263.06;;;2.46;90.73
78170;BME280;67412;49.892;14.490;2023-04-08T01:31:24;97269.91;;;2.51;90.20
78170;BME280;67412;49.892;14.490;2023-04-08T01:33:50;97271.59;;;2.52;90.80
78170;BME280;67412;49.892;14.490;2023-04-08T01:36:17;97273.31;;;2.53;90.47
78170;BME280;67412;49.892;14.490;2023-04-08T01:38:45;97267.34;;;2.50;90.90
78170;BME280;67412;49.892;14.490;2023-04-08T01:41:11;97268.19;;;2.50;90.70
78170;BME280;67412;49.892;14.490;2023-04-08T01:43:38;97259.66;;;2.45;91.19
78170;BME280;67412;49.892;14.490;2023-04-08T01:46:07;97265.63;;;2.47;90.78
78170;BME280;67412;49.892;14.490;2023-04-08T01:48:34;97267.38;;;2.51;91.06
78170;BME280;67412;49.892;14.490;2023-04-08T01:51:01;97275.88;;;2.55;90.88
78170;BME280;67412;49.892;14.490;2023-04-08T01:53:28;97279.28;;;2.57;91.12
78170;BME280;67412;49.892;14.490;2023-04-08T01:55:57;97271.72;;;2.58;90.98
78170;BME280;67412;49.892;14.490;2023-04-08T01:58:30;97265.59;;;2.46;90.97
78170;BME280;67412;49.892;14.490;2023-04-08T02:00:57;97272.50;;;2.54;91.04
78170;BME280;67412;49.892;14.490;2023-04-08T02:03:25;97268.16;;;2.49;91.53
78170;BME280;67412;49.892;14.490;2023-04-08T02:05:52;97264.00;;;2.52;90.90
78170;BME280;67412;49.892;14.490;2023-04-08T02:08:18;97267.38;;;2.53;91.19
78170;BME280;67412;49.892;14.490;2023-04-08T02:10:43;97266.50;;;2.49;91.53
78170;BME280;67412;49.892;14.490;2023-04-08T02:13:08;97275.78;;;2.49;91.56
78170;BME280;67412;49.892;14.490;2023-04-08T02:15:37;97264.84;;;2.51;91.12
78170;BME280;67412;49.892;14.490;2023-04-08T02:18:08;97268.16;;;2.49;91.73
78170;BME280;67412;49.892;14.490;2023-04-08T02:20:43;97266.56;;;2.55;91.25
78170;BME280;67412;49.892;14.490;2023-04-08T02:23:13;97270.69;;;2.49;91.48
78170;BME280;67412;49.892;14.490;2023-04-08T02:25:39;97272.31;;;2.43;91.05
78170;BME280;67412;49.892;14.490;2023-04-08T02:28:09;97278.09;;;2.36;91.38
78170;BME280;67412;49.892;14.490;2023-04-08T02:30:36;97272.13;;;2.33;91.07
78170;BME280;67412;49.892;14.490;2023-04-08T02:33:05;97271.47;;;2.43;91.28
78170;BME280;67412;49.892;14.490;2023-04-08T02:35:32;97268.22;;;2.52;91.18
78170;BME280;67412;49.892;14.490;2023-04-08T02:37:57;97269.88;;;2.50;91.10
78170;BME280;67412;49.892;14.490;2023-04-08T02:40:29;97264.00;;;2.51;90.51
78170;BME280;67412;49.892;14.490;2023-04-08T02:42:54;97265.72;;;2.53;90.72
78170;BME280;67412;49.892;14.490;2023-04-08T02:45:20;97275.00;;;2.51;90.92
78170;BME280;67412;49.892;14.490;2023-04-08T02:47:46;97275.69;;;2.42;91.78
78170;BME280;67412;49.892;14.490;2023-04-08T02:50:12;97280.72;;;2.41;92.18
78170;BME280;67412;49.892;14.490;2023-04-08T02:52:37;97276.50;;;2.41;91.62
78170;BME280;67412;49.892;14.490;2023-04-08T02:55:02;97280.75;;;2.42;91.77
78170;BME280;67412;49.892;14.490;2023-04-08T02:57:30;97277.34;;;2.42;91.52
78170;BME280;67412;49.892;14.490;2023-04-08T02:59:56;97283.38;;;2.47;91.67
78170;BME280;67412;49.892;14.490;2023-04-08T03:02:21;97290.19;;;2.51;91.33
78170;BME280;67412;49.892;14.490;2023-04-08T03:04:46;97285.00;;;2.45;91.64
78170;BME280;67412;49.892;14.490;2023-04-08T03:07:12;97282.50;;;2.47;91.50
78170;BME280;67412;49.892;14.490;2023-04-08T03:09:37;97287.53;;;2.45;92.10
78170;BME280;67412;49.892;14.490;2023-04-08T03:12:02;97285.81;;;2.42;92.07
78170;BME280;67412;49.892;14.490;2023-04-08T03:14:28;97291.81;;;2.48;92.61
78170;BME280;67412;49.892;14.490;2023-04-08T03:16:53;97293.56;;;2.50;92.09
78170;BME280;67412;49.892;14.490;2023-04-08T03:19:18;97288.47;;;2.50;91.96
78170;BME280;67412;49.892;14.490;2023-04-08T03:21:44;97286.78;;;2.49;91.95
78170;BME280;67412;49.892;14.490;2023-04-08T03:24:09;97285.97;;;2.52;92.23
78170;BME280;67412;49.892;14.490;2023-04-08T03:26:34;97280.09;;;2.54;91.97
78170;BME280;67412;49.892;14.490;2023-04-08T03:29:00;97285.13;;;2.53;91.80
78170;BME280;67412;49.892;14.490;2023-04-08T03:31:26;97276.72;;;2.55;91.92
78170;BME280;67412;49.892;14.490;2023-04-08T03:33:51;97280.16;;;2.57;92.07
78170;BME280;67412;49.892;14.490;2023-04-08T03:36:16;97283.38;;;2.49;92.31
78170;BME280;67412;49.892;14.490;2023-04-08T03:38:43;97291.06;;;2.53;92.04
78170;BME280;67412;49.892;14.490;2023-04-08T03:41:08;97290.28;;;2.57;91.78
78170;BME280;67412;49.892;14.490;2023-04-08T03:43:33;97285.25;;;2.60;91.77
78170;BME280;67412;49.892;14.490;2023-04-08T03:45:59;97285.25;;;2.59;91.49
78170;BME280;67412;49.892;14.490;2023-04-08T03:48:24;97295.28;;;2.51;91.75
78170;BME280;67412;49.892;14.490;2023-04-08T03:50:49;97291.16;;;2.58;91.72
78170;BME280;67412;49.892;14.490;2023-04-08T03:53:15;97296.91;;;2.49;91.27
78170;BME280;67412;49.892;14.490;2023-04-08T03:55:40;97292.88;;;2.59;91.35
78170;BME280;67412;49.892;14.490;2023-04-08T03:58:06;97300.44;;;2.57;91.27
78170;BME280;67412;49.892;14.490;2023-04-08T04:00:31;97297.06;;;2.58;91.19
78170;BME280;67412;49.892;14.490;2023-04-08T04:02:56;97291.19;;;2.61;91.64
78170;BME280;67412;49.892;14.490;2023-04-08T04:05:22;97304.69;;;2.58;91.42
78170;BME280;67412;49.892;14.490;2023-04-08T04:07:47;97298.75;;;2.59;90.99
78170;BME280;67412;49.892;14.490;2023-04-08T04:10:12;97308.13;;;2.63;91.41
78170;BME280;67412;49.892;14.490;2023-04-08T04:12:38;97309.03;;;2.65;91.67
78170;BME280;67412;49.892;14.490;2023-04-08T04:15:04;97308.28;;;2.74;91.04
78170;BME280;67412;49.892;14.490;2023-04-08T04:17:29;97312.41;;;2.67;91.48
78170;BME280;67412;49.892;14.490;2023-04-08T04:19:54;97319.28;;;2.74;91.02
78170;BME280;67412;49.892;14.490;2023-04-08T04:22:20;97318.31;;;2.65;91.73
78170;BME280;67412;49.892;14.490;2023-04-08T04:24:46;97316.59;;;2.62;92.01
78170;BME280;67412;49.892;14.490;2023-04-08T04:27:12;97320.75;;;2.59;91.77
78170;BME280;67412;49.892;14.490;2023-04-08T04:29:38;97326.69;;;2.61;92.05
78170;BME280;67412;49.892;14.490;2023-04-08T04:32:03;97324.19;;;2.62;91.81
78170;BME280;67412;49.892;14.490;2023-04-08T04:34:28;97324.25;;;2.65;92.09
78170;BME280;67412;49.892;14.490;2023-04-08T04:36:54;97331.16;;;2.75;91.73
78170;BME280;67412;49.892;14.490;2023-04-08T04:39:19;97327.75;;;2.75;90.95
78170;BME280;67412;49.892;14.490;2023-04-08T04:41:45;97334.38;;;2.67;91.95
78170;BME280;67412;49.892;14.490;2023-04-08T04:44:11;97332.91;;;2.79;91.72
78170;BME280;67412;49.892;14.490;2023-04-08T04:46:36;97332.81;;;2.73;92.04
78170;BME280;67412;49.892;14.490;2023-04-08T04:49:01;97343.78;;;2.72;91.47
78170;BME280;67412;49.892;14.490;2023-04-08T04:51:27;97342.16;;;2.76;91.24
78170;BME280;67412;49.892;14.490;2023-04-08T04:53:55;97350.59;;;2.75;91.46
78170;BME280;67412;49.892;14.490;2023-04-08T04:56:20;97342.88;;;2.69;91.27
78170;BME280;67412;49.892;14.490;2023-04-08T04:58:46;97345.38;;;2.66;91.54
78170;BME280;67412;49.892;14.490;2023-04-08T05:01:11;97346.19;;;2.65;91.73
78170;BME280;67412;49.892;14.490;2023-04-08T05:03:36;97354.50;;;2.56;91.28
78170;BME280;67412;49.892;14.490;2023-04-08T05:06:01;97350.25;;;2.55;91.10
78170;BME280;67412;49.892;14.490;2023-04-08T05:08:27;97347.53;;;2.43;91.29
78170;BME280;67412;49.892;14.490;2023-04-08T05:10:52;97351.03;;;2.51;91.26
78170;BME280;67412;49.892;14.490;2023-04-08T05:13:20;97348.50;;;2.51;91.67
78170;BME280;67412;49.892;14.490;2023-04-08T05:15:45;97352.78;;;2.55;91.23
78170;BME280;67412;49.892;14.490;2023-04-08T05:18:11;97354.53;;;2.59;91.20
78170;BME280;67412;49.892;14.490;2023-04-08T05:20:36;97356.25;;;2.60;90.73
78170;BME280;67412;49.892;14.490;2023-04-08T05:23:01;97363.66;;;2.48;91.45
78170;BME280;67412;49.892;14.490;2023-04-08T05:25:27;97357.88;;;2.57;91.09
78170;BME280;67412;49.892;14.490;2023-04-08T05:27:52;97366.41;;;2.60;91.03
78170;BME280;67412;49.892;14.490;2023-04-08T05:30:17;97359.78;;;2.68;90.85
78170;BME280;67412;49.892;14.490;2023-04-08T05:32:43;97368.25;;;2.69;90.31
78170;BME280;67412;49.892;14.490;2023-04-08T05:35:08;97365.69;;;2.67;90.20
78170;BME280;67412;49.892;14.490;2023-04-08T05:37:34;97370.06;;;2.76;90.46
78170;BME280;67412;49.892;14.490;2023-04-08T05:39:59;97378.31;;;2.64;90.17
78170;BME280;67412;49.892;14.490;2023-04-08T05:42:25;97377.50;;;2.65;90.67
78170;BME280;67412;49.892;14.490;2023-04-08T05:44:51;97371.56;;;2.66;90.50
78170;BME280;67412;49.892;14.490;2023-04-08T05:47:16;97372.41;;;2.65;90.55
78170;BME280;67412;49.892;14.490;2023-04-08T05:49:42;97378.41;;;2.70;91.30
78170;BME280;67412;49.892;14.490;2023-04-08T05:52:07;97375.16;;;2.77;90.41
78170;BME280;67412;49.892;14.490;2023-04-08T05:54:33;97375.19;;;2.79;90.54
78170;BME280;67412;49.892;14.490;2023-04-08T05:56:58;97382.88;;;2.85;90.20
78170;BME280;67412;49.892;14.490;2023-04-08T05:59:23;97392.94;;;2.77;90.13
78170;BME280;67412;49.892;14.490;2023-04-08T06:01:48;97387.84;;;2.79;90.67
78170;BME280;67412;49.892;14.490;2023-04-08T06:04:14;97394.72;;;2.84;90.62
78170;BME280;67412;49.892;14.490;2023-04-08T06:06:41;97394.09;;;2.96;90.52
78170;BME280;67412;49.892;14.490;2023-04-08T06:09:07;97393.22;;;2.97;90.48
78170;BME280;67412;49.892;14.490;2023-04-08T06:11:33;97400.03;;;2.98;90.46
78170;BME280;67412;49.892;14.490;2023-04-08T06:13:59;97398.44;;;3.03;90.42
78170;BME280;67412;49.892;14.490;2023-04-08T06:16:24;97402.53;;;2.95;90.56
78170;BME280;67412;49.892;14.490;2023-04-08T06:18:50;97397.44;;;2.97;90.12
78170;BME280;67412;49.892;14.490;2023-04-08T06:21:16;97394.00;;;2.93;90.36
78170;BME280;67412;49.892;14.490;2023-04-08T06:23:41;97405.84;;;2.92;90.53
78170;BME280;67412;49.892;14.490;2023-04-08T06:26:07;97405.06;;;2.95;90.03
78170;BME280;67412;49.892;14.490;2023-04-08T06:28:32;97402.59;;;3.01;90.29
78170;BME280;67412;49.892;14.490;2023-04-08T06:30:58;97406.03;;;3.05;90.13
78170;BME280;67412;49.892;14.490;2023-04-08T06:33:23;97410.22;;;3.01;89.70
78170;BME280;67412;49.892;14.490;2023-04-08T06:35:48;97411.00;;;2.97;90.14
78170;BME280;67412;49.892;14.490;2023-04-08T06:38:14;97416.16;;;3.02;90.10
78170;BME280;67412;49.892;14.490;2023-04-08T06:40:39;97412.94;;;3.10;89.68
78170;BME280;67412;49.892;14.490;2023-04-08T06:43:04;97416.38;;;3.15;89.46
78170;BME280;67412;49.892;14.490;2023-04-08T06:45:32;97419.88;;;3.22;89.67
78170;BME280;67412;49.892;14.490;2023-04-08T06:47:57;97422.44;;;3.23;89.74
78170;BME280;67412;49.892;14.490;2023-04-08T06:50:22;97423.38;;;3.30;89.27
78170;BME280;67412;49.892;14.490;2023-04-08T06:52:48;97429.41;;;3.36;88.97
78170;BME280;67412;49.892;14.490;2023-04-08T06:55:13;97436.03;;;3.27;89.06
78170;BME280;67412;49.892;14.490;2023-04-08T06:57:38;97435.19;;;3.28;88.51
78170;BME280;67412;49.892;14.490;2023-04-08T07:00:04;97436.25;;;3.40;88.44
78170;BME280;67412;49.892;14.490;2023-04-08T07:02:30;97433.75;;;3.45;89.03
78170;BME280;67412;49.892;14.490;2023-04-08T07:04:56;97438.69;;;3.33;88.39
78170;BME280;67412;49.892;14.490;2023-04-08T07:07:22;97445.50;;;3.37;89.15
78170;BME280;67412;49.892;14.490;2023-04-08T07:09:48;97448.91;;;3.39;88.86
78170;BME280;67412;49.892;14.490;2023-04-08T07:12:14;97448.97;;;3.42;88.72
78170;BME280;67412;49.892;14.490;2023-04-08T07:14:39;97451.53;;;3.44;88.60
78170;BME280;67412;49.892;14.490;2023-04-08T07:17:05;97451.63;;;3.50;87.96
78170;BME280;67412;49.892;14.490;2023-04-08T07:19:30;97454.19;;;3.51;87.64
78170;BME280;67412;49.892;14.490;2023-04-08T07:21:56;97459.31;;;3.54;88.59
78170;BME280;67412;49.892;14.490;2023-04-08T07:24:22;97450.00;;;3.56;88.56
78170;BME280;67412;49.892;14.490;2023-04-08T07:26:47;97454.41;;;3.66;88.52
78170;BME280;67412;49.892;14.490;2023-04-08T07:29:13;97458.59;;;3.64;87.39
78170;BME280;67412;49.892;14.490;2023-04-08T07:31:41;97459.56;;;3.72;88.52
78170;BME280;67412;49.892;14.490;2023-04-08T07:34:07;97460.28;;;3.64;87.98
78170;BME280;67412;49.892;14.490;2023-04-08T07:36:32;97456.03;;;3.61;88.56
78170;BME280;67412;49.892;14.490;2023-04-08T07:38:57;97458.78;;;3.75;89.01
78170;BME280;67412;49.892;14.490;2023-04-08T07:41:23;97461.59;;;3.93;88.14
78170;BME280;67412;49.892;14.490;2023-04-08T07:43:48;97466.03;;;4.08;88.70
78170;BME280;67412;49.892;14.490;2023-04-08T07:46:13;97466.31;;;4.30;87.48
78170;BME280;67412;49.892;14.490;2023-04-08T07:48:39;97476.44;;;4.27;87.05
78170;BME280;67412;49.892;14.490;2023-04-08T07:51:07;97472.25;;;4.32;86.88
78170;BME280;67412;49.892;14.490;2023-04-08T07:53:32;97472.41;;;4.42;85.93
78170;BME280;67412;49.892;14.490;2023-04-08T07:55:59;97479.22;;;4.47;86.02
78170;BME280;67412;49.892;14.490;2023-04-08T07:58:25;97482.78;;;4.60;85.52
78170;BME280;67412;49.892;14.490;2023-04-08T08:00:50;97483.03;;;4.84;84.45
78170;BME280;67412;49.892;14.490;2023-04-08T08:03:16;97483.19;;;4.95;84.76
78170;BME280;67412;49.892;14.490;2023-04-08T08:05:41;97488.03;;;4.76;84.97
78170;BME280;67412;49.892;14.490;2023-04-08T08:08:07;97490.53;;;4.70;83.97
78170;BME280;67412;49.892;14.490;2023-04-08T08:10:32;97496.34;;;4.57;84.81
78170;BME280;67412;49.892;14.490;2023-04-08T08:12:58;97488.72;;;4.62;84.85
78170;BME280;67412;49.892;14.490;2023-04-08T08:15:23;97502.31;;;4.62;85.03
78170;BME280;67412;49.892;14.490;2023-04-08T08:17:48;97504.09;;;4.68;84.90
78170;BME280;67412;49.892;14.490;2023-04-08T08:20:13;97503.38;;;4.79;84.48
78170;BME280;67412;49.892;14.490;2023-04-08T08:22:39;97504.19;;;4.80;83.48
78170;BME280;67412;49.892;14.490;2023-04-08T08:25:05;97502.34;;;4.65;84.82
78170;BME280;67412;49.892;14.490;2023-04-08T08:27:31;97509.94;;;4.61;85.95
78170;BME280;67412;49.892;14.490;2023-04-08T08:29:58;97505.88;;;4.78;85.22
78170;BME280;67412;49.892;14.490;2023-04-08T08:32:24;97510.84;;;4.67;84.54
78170;BME280;67412;49.892;14.490;2023-04-08T08:34:49;97516.00;;;4.72;84.15
78170;BME280;67412;49.892;14.490;2023-04-08T08:37:14;97517.59;;;4.64;84.23
78170;BME280;67412;49.892;14.490;2023-04-08T08:39:40;97514.16;;;4.60;85.47
78170;BME280;67412;49.892;14.490;2023-04-08T08:42:06;97522.66;;;4.61;84.99
78170;BME280;67412;49.892;14.490;2023-04-08T08:44:31;97522.78;;;4.73;85.02
78170;BME280;67412;49.892;14.490;2023-04-08T08:46:56;97533.06;;;4.80;85.14
78170;BME280;67412;49.892;14.490;2023-04-08T08:49:22;97533.06;;;4.80;84.66
78170;BME280;67412;49.892;14.490;2023-04-08T08:51:48;97536.44;;;4.79;84.02
78170;BME280;67412;49.892;14.490;2023-04-08T08:54:15;97540.66;;;4.76;84.38
78170;BME280;67412;49.892;14.490;2023-04-08T08:56:40;97548.22;;;4.73;84.27
78170;BME280;67412;49.892;14.490;2023-04-08T08:59:08;97546.66;;;4.84;84.45
78170;BME280;67412;49.892;14.490;2023-04-08T09:01:37;97551.00;;;4.90;85.30
78170;BME280;67412;49.892;14.490;2023-04-08T09:04:14;97548.53;;;4.97;83.69
78170;BME280;67412;49.892;14.490;2023-04-08T09:06:43;97557.72;;;4.87;83.72
78170;BME280;67412;49.892;14.490;2023-04-08T09:09:08;97557.00;;;4.95;83.95
78170;BME280;67412;49.892;14.490;2023-04-08T09:11:35;97561.25;;;4.99;83.43
78170;BME280;67412;49.892;14.490;2023-04-08T09:14:01;97565.53;;;4.98;82.80
78170;BME280;67412;49.892;14.490;2023-04-08T09:16:27;97569.72;;;4.95;84.05
78170;BME280;67412;49.892;14.490;2023-04-08T09:18:53;97568.06;;;5.00;84.16
78170;BME280;67412;49.892;14.490;2023-04-08T09:21:22;97573.28;;;5.09;83.80
78170;BME280;67412;49.892;14.490;2023-04-08T09:23:50;97577.34;;;4.95;83.71
78170;BME280;67412;49.892;14.490;2023-04-08T09:26:22;97582.59;;;5.08;82.85
78170;BME280;67412;49.892;14.490;2023-04-08T09:29:07;97574.38;;;5.32;82.81
78170;BME280;67412;49.892;14.490;2023-04-08T09:31:35;97577.78;;;5.34;83.41
78170;BME280;67412;49.892;14.490;2023-04-08T09:34:13;97579.53;;;5.38;83.09
78170;BME280;67412;49.892;14.490;2023-04-08T09:36:40;97570.31;;;5.52;82.47
78170;BME280;67412;49.892;14.490;2023-04-08T09:39:06;97578.03;;;5.58;81.90
78170;BME280;67412;49.892;14.490;2023-04-08T09:41:36;97571.84;;;5.36;81.36
78170;BME280;67412;49.892;14.490;2023-04-08T09:44:04;97578.59;;;5.30;82.46
78170;BME280;67412;49.892;14.490;2023-04-08T09:46:39;97585.38;;;5.28;81.74
78170;BME280;67412;49.892;14.490;2023-04-08T09:49:10;97580.97;;;5.15;82.67
78170;BME280;67412;49.892;14.490;2023-04-08T09:51:52;97586.00;;;5.09;83.41
78170;BME280;67412;49.892;14.490;2023-04-08T09:54:22;97586.06;;;5.15;82.88
78170;BME280;67412;49.892;14.490;2023-04-08T09:57:04;97587.88;;;5.25;83.21
78170;BME280;67412;49.892;14.490;2023-04-08T09:59:35;97585.34;;;5.26;82.79
78170;BME280;67412;49.892;14.490;2023-04-08T10:02:06;97589.53;;;5.20;82.96
78170;BME280;67412;49.892;14.490;2023-04-08T10:04:38;97592.94;;;5.22;84.75
78170;BME280;67412;49.892;14.490;2023-04-08T10:07:07;97589.53;;;5.21;84.20
78170;BME280;67412;49.892;14.490;2023-04-08T10:09:33;97599.50;;;5.02;84.48
78170;BME280;67412;49.892;14.490;2023-04-08T10:12:00;97598.72;;;5.06;85.52
78170;BME280;67412;49.892;14.490;2023-04-08T10:14:26;97595.50;;;5.25;84.83
78170;BME280;67412;49.892;14.490;2023-04-08T10:17:25;97592.31;;;5.44;84.20
78170;BME280;67412;49.892;14.490;2023-04-08T10:19:56;97597.63;;;5.67;83.74
78170;BME280;67412;49.892;14.490;2023-04-08T10:27:42;97600.97;;;5.58;82.02
78170;BME280;67412;49.892;14.490;2023-04-08T10:32:55;97606.91;;;5.60;82.43
78170;BME280;67412;49.892;14.490;2023-04-08T10:35:31;97603.53;;;5.61;81.90
78170;BME280;67412;49.892;14.490;2023-04-08T10:37:57;97615.38;;;5.55;82.45
78170;BME280;67412;49.892;14.490;2023-04-08T10:40:23;97612.75;;;5.47;82.35
78170;BME280;67412;49.892;14.490;2023-04-08T10:42:58;97617.31;;;5.80;81.23
78170;BME280;67412;49.892;14.490;2023-04-08T10:45:24;97609.84;;;5.97;80.81
78170;BME280;67412;49.892;14.490;2023-04-08T10:47:50;97610.81;;;6.11;80.72
78170;BME280;67412;49.892;14.490;2023-04-08T10:50:17;97607.66;;;6.44;77.74
78170;BME280;67412;49.892;14.490;2023-04-08T10:52:51;97609.53;;;6.73;78.58
78170;BME280;67412;49.892;14.490;2023-04-08T10:55:26;97609.66;;;7.02;77.71
78170;BME280;67412;49.892;14.490;2023-04-08T10:57:52;97607.19;;;7.16;76.57
78170;BME280;67412;49.892;14.490;2023-04-08T11:00:19;97605.53;;;7.36;77.41
78170;BME280;67412;49.892;14.490;2023-04-08T11:02:44;97605.53;;;7.30;76.18
78170;BME280;67412;49.892;14.490;2023-04-08T11:05:09;97600.41;;;7.33;75.68
78170;BME280;67412;49.892;14.490;2023-04-08T11:07:41;97608.84;;;7.08;76.39
78170;BME280;67412;49.892;14.490;2023-04-08T11:10:07;97612.19;;;6.95;77.46
78170;BME280;67412;49.892;14.490;2023-04-08T11:12:34;97612.94;;;6.75;76.12
78170;BME280;67412;49.892;14.490;2023-04-08T11:15:02;97615.41;;;6.60;76.74
78170;BME280;67412;49.892;14.490;2023-04-08T11:17:28;97618.69;;;6.43;76.95
78170;BME280;67412;49.892;14.490;2023-04-08T11:19:54;97612.78;;;6.47;76.33
78170;BME280;67412;49.892;14.490;2023-04-08T11:22:21;97618.66;;;6.41;77.17
78170;BME280;67412;49.892;14.490;2023-04-08T11:24:47;97617.06;;;6.52;77.24
78170;BME280;67412;49.892;14.490;2023-04-08T11:27:13;97624.72;;;6.54;77.15
78170;BME280;67412;49.892;14.490;2023-04-08T11:29:40;97626.38;;;6.46;77.28
78170;BME280;67412;49.892;14.490;2023-04-08T11:32:06;97624.63;;;6.37;77.54
78170;BME280;67412;49.892;14.490;2023-04-08T11:34:38;97628.78;;;6.26;77.49
78170;BME280;67412;49.892;14.490;2023-04-08T11:37:04;97634.78;;;6.29;76.88
78170;BME280;67412;49.892;14.490;2023-04-08T11:39:29;97634.78;;;6.32;77.40
78170;BME280;67412;49.892;14.490;2023-04-08T11:41:56;97633.03;;;6.25;77.17
78170;BME280;67412;49.892;14.490;2023-04-08T11:44:31;97633.00;;;6.22;76.39
78170;BME280;67412;49.892;14.490;2023-04-08T11:46:58;97630.41;;;6.19;75.76
78170;BME280;67412;49.892;14.490;2023-04-08T11:49:23;97632.00;;;6.02;76.89
78170;BME280;67412;49.892;14.490;2023-04-08T11:51:59;97637.88;;;5.95;77.50
78170;BME280;67412;49.892;14.490;2023-04-08T11:54:39;97646.19;;;5.79;77.66
78170;BME280;67412;49.892;14.490;2023-04-08T11:57:05;97638.50;;;5.74;77.96
78170;BME280;67412;49.892;14.490;2023-04-08T11:59:30;97643.63;;;5.79;78.12
78170;BME280;67412;49.892;14.490;2023-04-08T12:01:56;97634.94;;;5.57;77.94
78170;BME280;67412;49.892;14.490;2023-04-08T12:04:21;97646.78;;;5.55;78.21
78170;BME280;67412;49.892;14.490;2023-04-08T12:06:46;97643.53;;;5.68;77.53
78170;BME280;67412;49.892;14.490;2023-04-08T12:09:12;97637.56;;;5.66;77.49
78170;BME280;67412;49.892;14.490;2023-04-08T12:11:38;97639.25;;;5.64;78.18
78170;BME280;67412;49.892;14.490;2023-04-08T12:14:03;97646.88;;;5.63;77.21
78170;BME280;67412;49.892;14.490;2023-04-08T12:16:29;97638.44;;;5.68;77.16
78170;BME280;67412;49.892;14.490;2023-04-08T12:18:54;97647.00;;;5.73;77.73
78170;BME280;67412;49.892;14.490;2023-04-08T12:21:20;97644.44;;;5.75;77.03
78170;BME280;67412;49.892;14.490;2023-04-08T12:23:45;97644.50;;;5.79;77.39
78170;BME280;67412;49.892;14.490;2023-04-08T12:26:11;97649.63;;;5.81;76.90
78170;BME280;67412;49.892;14.490;2023-04-08T12:28:37;97654.00;;;5.94;77.68
78170;BME280;67412;49.892;14.490;2023-04-08T12:31:03;97653.19;;;5.97;76.94
78170;BME280;67412;49.892;14.490;2023-04-08T12:33:29;97653.88;;;5.83;76.83
78170;BME280;67412;49.892;14.490;2023-04-08T12:35:54;97654.66;;;5.78;76.52
78170;BME280;67412;49.892;14.490;2023-04-08T12:38:20;97664.16;;;5.90;77.04
78170;BME280;67412;49.892;14.490;2023-04-08T12:40:45;97649.63;;;5.81;77.66
78170;BME280;67412;49.892;14.490;2023-04-08T12:43:10;97665.00;;;5.89;76.76
78170;BME280;67412;49.892;14.490;2023-04-08T12:45:36;97662.53;;;5.98;77.58
78170;BME280;67412;49.892;14.490;2023-04-08T12:48:02;97660.09;;;6.08;76.44
78170;BME280;67412;49.892;14.490;2023-04-08T12:50:27;97665.16;;;6.05;76.84
78170;BME280;67412;49.892;14.490;2023-04-08T12:52:52;97659.28;;;6.11;77.17
78170;BME280;67412;49.892;14.490;2023-04-08T12:55:18;97656.06;;;6.33;75.24
78170;BME280;67412;49.892;14.490;2023-04-08T12:57:43;97657.94;;;6.58;75.12
78170;BME280;67412;49.892;14.490;2023-04-08T13:00:09;97655.50;;;6.79;74.19
78170;BME280;67412;49.892;14.490;2023-04-08T13:02:35;97654.84;;;7.11;75.42
78170;BME280;67412;49.892;14.490;2023-04-08T13:05:00;97648.22;;;7.60;74.37
78170;BME280;67412;49.892;14.490;2023-04-08T13:07:26;97654.25;;;8.07;71.17
78170;BME280;67412;49.892;14.490;2023-04-08T13:09:51;97654.25;;;7.98;68.03